createdAt,value
2023-08-30T00:04:57.571Z,4185.7
2023-08-30T00:10:33.228Z,4185.8
2023-08-30T00:16:09.711Z,4182.1
2023-08-30T00:21:46.121Z,4187.2
2023-08-30T00:27:21.407Z,4189
2023-08-30T00:32:57.703Z,4188.3
2023-08-30T00:38:33.333Z,4186.3
2023-08-30T00:44:08.603Z,4183.1
2023-08-30T00:49:44.367Z,4182
2023-08-30T00:55:19.494Z,4184.8
2023-08-30T01:00:55.346Z,4184.5
2023-08-30T01:06:30.681Z,4183.3
2023-08-30T01:12:06.665Z,4182.5
2023-08-30T01:17:42.654Z,4181.3
2023-08-30T01:23:18.181Z,4183.8
2023-08-30T01:28:53.733Z,4181.6
2023-08-30T01:34:29.883Z,4182
2023-08-30T01:40:05.526Z,4185.7
2023-08-30T01:45:41.221Z,4180.6
2023-08-30T01:51:16.488Z,4181.3
2023-08-30T01:56:51.683Z,4182
2023-08-30T02:02:27.201Z,4182.8
2023-08-30T02:08:03.429Z,4179.5
2023-08-30T02:13:39.681Z,4179
2023-08-30T02:19:15.869Z,4181.5
2023-08-30T02:24:52.125Z,4182.6
2023-08-30T02:30:27.491Z,4180
2023-08-30T02:36:03.523Z,4181
2023-08-30T02:41:38.797Z,4178.3
2023-08-30T02:47:13.891Z,4177.3
2023-08-30T02:52:49.620Z,4179.3
2023-08-30T02:58:24.739Z,4177.6
2023-08-30T03:04:00.228Z,4178.6
2023-08-30T03:09:35.857Z,4178.8
2023-08-30T03:15:11.544Z,4179.8
2023-08-30T03:20:46.608Z,4181
2023-08-30T03:26:24.224Z,4176.4
2023-08-30T03:31:59.465Z,4176.4
2023-08-30T03:37:34.567Z,4176.3
2023-08-30T03:43:10.345Z,4176.6
2023-08-30T03:48:45.643Z,4176.3
2023-08-30T03:54:21.738Z,4177.3
2023-08-30T03:59:58.183Z,4175.1
2023-08-30T04:05:33.843Z,4175.1
2023-08-30T04:11:09.782Z,4174.6
2023-08-30T04:16:46.703Z,4174.3
2023-08-30T04:22:22.357Z,4174.6
2023-08-30T04:27:57.531Z,4174.3
2023-08-30T04:33:33.450Z,4174.6
2023-08-30T04:39:08.964Z,4174.8
2023-08-30T04:44:44.261Z,4173.1
2023-08-30T04:50:19.836Z,4173.4
2023-08-30T04:55:55.453Z,4174.8
2023-08-30T05:01:30.620Z,4171.8
2023-08-30T05:07:06.785Z,4173.8
2023-08-30T05:12:42.405Z,4173.1
2023-08-30T05:18:17.393Z,4172.1
2023-08-30T05:23:52.881Z,4172.9
2023-08-30T05:29:28.737Z,4170.7
2023-08-30T05:35:04.183Z,4172.3
2023-08-30T05:40:39.652Z,4171.8
2023-08-30T05:46:16.340Z,4171.9
2023-08-30T05:51:52.888Z,4170.9
2023-08-30T05:57:28.313Z,4170.2
2023-08-30T06:03:04.845Z,4168.4
2023-08-30T06:08:40.532Z,4169.2
2023-08-30T06:14:16.404Z,4169.6
2023-08-30T06:19:51.933Z,4168.4
2023-08-30T06:25:27.224Z,4169.9
2023-08-30T06:31:03.156Z,4170.6
2023-08-30T06:36:38.470Z,4168.1
2023-08-30T06:42:13.736Z,4168.2
2023-08-30T06:47:49.244Z,4174.4
2023-08-30T06:53:24.651Z,4182.8
2023-08-30T06:59:00.225Z,4179.8
2023-08-30T07:04:36.471Z,4177.6
2023-08-30T07:10:11.620Z,4177.8
2023-08-30T07:15:47.880Z,4179.6
2023-08-30T07:21:24.179Z,4180.5
2023-08-30T07:26:59.462Z,4180.1
2023-08-30T07:32:35.062Z,4183.3
2023-08-30T07:38:12.425Z,4181
2023-08-30T07:43:47.835Z,4184.1
2023-08-30T07:49:23.013Z,4183.6
2023-08-30T07:54:59.503Z,4184.5
2023-08-30T08:00:35.374Z,4182.6
2023-08-30T08:06:10.946Z,4183.3
2023-08-30T08:11:46.671Z,4186
2023-08-30T08:17:22.826Z,4186
2023-08-30T08:22:58.953Z,4196.5
2023-08-30T08:28:35.013Z,4191.5
2023-08-30T08:34:10.274Z,4184.1
2023-08-30T08:39:45.934Z,4204.4
2023-08-30T08:45:21.907Z,4198.2
2023-08-30T08:50:57.789Z,4199.6
2023-08-30T08:56:36.631Z,4197.9
2023-08-30T09:02:12.737Z,4209.4
2023-08-30T09:07:47.816Z,4204.4
2023-08-30T09:13:23.011Z,4205.6
2023-08-30T09:19:12.673Z,4205.9
2023-08-30T09:24:48.281Z,4226.5
2023-08-30T09:30:24.588Z,4226.7
2023-08-30T09:36:00.264Z,4209.3
2023-08-30T09:41:35.846Z,4215
2023-08-30T09:47:11.309Z,4216.5
2023-08-30T09:52:47.468Z,4216.5
2023-08-30T09:58:24.058Z,4226.5
2023-08-30T10:04:01.108Z,4227
2023-08-30T10:09:36.896Z,4227.5
2023-08-30T10:15:13.493Z,4227.4
2023-08-30T10:20:48.977Z,4213.8
2023-08-30T10:26:24.835Z,4215.8
2023-08-30T10:32:00.718Z,4213
2023-08-30T10:37:39.001Z,4223.7
2023-08-30T10:43:14.718Z,4225.5
2023-08-30T10:48:50.585Z,4224.7
2023-08-30T10:54:25.597Z,4217.6
2023-08-30T11:00:01.838Z,4221.3
2023-08-30T11:05:37.992Z,4232.2
2023-08-30T11:11:13.456Z,4225.5
2023-08-30T11:16:49.376Z,4232.2
2023-08-30T11:22:25.281Z,4231.7
2023-08-30T11:28:01.300Z,4225.4
2023-08-30T11:33:36.889Z,4230.2
2023-08-30T11:39:12.599Z,4224.4
2023-08-30T11:44:49.042Z,4221
2023-08-30T11:50:49.718Z,4218.3
2023-08-30T11:56:26.596Z,4226.4
2023-08-30T12:02:02.188Z,4228.9
2023-08-30T12:07:38.272Z,4232.4
2023-08-30T12:13:13.320Z,4229.7
2023-08-30T12:18:48.936Z,4233.7
2023-08-30T12:24:25.294Z,4230.2
2023-08-30T12:30:00.862Z,4228.5
2023-08-30T12:35:36.208Z,4224.5
2023-08-30T12:41:12.339Z,4222.8
2023-08-30T12:46:47.764Z,4225.5
2023-08-30T12:52:23.242Z,4224.2
2023-08-30T12:57:58.927Z,4220.7
2023-08-30T13:03:35.114Z,4232.1
2023-08-30T13:09:10.532Z,4231.9
2023-08-30T13:14:46.074Z,4229.5
2023-08-30T13:20:22.405Z,4226.7
2023-08-30T13:25:57.420Z,4222.3
2023-08-30T13:31:33.969Z,4224.2
2023-08-30T13:37:08.999Z,4225.5
2023-08-30T13:42:44.078Z,4212.8
2023-08-30T13:48:20.434Z,4223.5
2023-08-30T13:53:56.157Z,4216.6
2023-08-30T13:59:31.618Z,4211.3
2023-08-30T14:05:07.726Z,4219.5
2023-08-30T14:10:43.613Z,4211.5
2023-08-30T14:16:20.192Z,4218.8
2023-08-30T14:21:55.980Z,4214.1
2023-08-30T14:27:31.285Z,4216.3
2023-08-30T14:33:06.564Z,4215.3
2023-08-30T14:38:42.379Z,4216
2023-08-30T14:44:18.410Z,4218.8
2023-08-30T14:49:53.753Z,4218.8
2023-08-30T14:55:30.400Z,4218.3
2023-08-30T15:01:06.697Z,4219.2
2023-08-30T15:06:42.137Z,4215.1
2023-08-30T15:12:17.640Z,4205.8
2023-08-30T15:17:53.767Z,4209.3
2023-08-30T15:23:29.994Z,4212.1
2023-08-30T15:29:05.307Z,4219
2023-08-30T15:34:40.918Z,4208.9
2023-08-30T15:40:16.547Z,4216.6
2023-08-30T15:45:53.573Z,4220.7
2023-08-30T15:51:29.896Z,4224.9
2023-08-30T15:57:05.341Z,4232.7
2023-08-30T16:02:42.811Z,4225.7
2023-08-30T16:08:20.261Z,4224.2
2023-08-30T16:13:56.048Z,4219
2023-08-30T16:19:32.084Z,4221.5
2023-08-30T16:25:07.483Z,4219.7
2023-08-30T16:30:42.938Z,4207.6
2023-08-30T16:36:19.168Z,4212
2023-08-30T16:41:54.653Z,4207.8
2023-08-30T16:47:37.538Z,4209.3
2023-08-30T16:53:19.348Z,4211.5
2023-08-30T16:58:54.544Z,4218.7
2023-08-30T17:04:29.715Z,4215
2023-08-30T17:10:05.218Z,4209.8
2023-08-30T17:15:40.572Z,4211
2023-08-30T17:21:15.904Z,4209.9
2023-08-30T17:26:51.629Z,4211.3
2023-08-30T17:32:27.261Z,4210.1
2023-08-30T17:38:02.849Z,4206.3
2023-08-30T17:43:38.872Z,4211.3
2023-08-30T17:49:15.901Z,4209.8
2023-08-30T17:54:51.457Z,4210.1
2023-08-30T18:00:26.849Z,4207.6
2023-08-30T18:06:02.146Z,4205.9
2023-08-30T18:11:37.431Z,4202.6
2023-08-30T18:17:12.662Z,4203.4
2023-08-30T18:22:48.020Z,4202.4
2023-08-30T18:28:23.278Z,4201.4
2023-08-30T18:33:58.667Z,4200.9
2023-08-30T18:39:34.205Z,4199.9
2023-08-30T18:45:09.902Z,4200.7
2023-08-30T18:50:48.131Z,4200.2
2023-08-30T18:56:23.467Z,4199.1
2023-08-30T19:02:01.326Z,4199.1
2023-08-30T19:07:38.049Z,4201.7
2023-08-30T19:13:15.318Z,4202.2
2023-08-30T19:18:51.113Z,4199.4
2023-08-30T19:24:27.507Z,4198.2
2023-08-30T19:30:02.724Z,4199.6
2023-08-30T19:35:37.915Z,4199.9
2023-08-30T19:41:14.170Z,4198.6
2023-08-30T19:46:51.721Z,4197.9
2023-08-30T19:52:28.949Z,4199.7
2023-08-30T19:58:06.342Z,4198.2
2023-08-30T20:03:44.984Z,4199.1
2023-08-30T20:09:22.672Z,4196.9
2023-08-30T20:15:01.137Z,4197
2023-08-30T20:20:38.443Z,4197.5
2023-08-30T20:26:14.928Z,4195.2
2023-08-30T20:31:51.698Z,4197.9
2023-08-30T20:37:26.563Z,4197.5
2023-08-30T20:43:01.524Z,4198.7
2023-08-30T20:48:37.030Z,4195.9
2023-08-30T20:54:12.368Z,4194.9
2023-08-30T20:59:47.546Z,4198.6
2023-08-30T21:05:22.947Z,4193.9
2023-08-30T21:10:58.656Z,4194.7
2023-08-30T21:16:34.337Z,4196.4
2023-08-30T21:22:10.197Z,4194
2023-08-30T21:27:45.720Z,4194.5
2023-08-30T21:33:21.250Z,4193.2
2023-08-30T21:38:56.965Z,4194.4
2023-08-30T21:44:32.593Z,4192.2
2023-08-30T21:50:07.519Z,4191.2
2023-08-30T21:55:43.482Z,4193
2023-08-30T22:01:19.832Z,4193
2023-08-30T22:06:55.357Z,4192.5
2023-08-30T22:12:31.504Z,4189.7
2023-08-30T22:18:07.491Z,4189.8
2023-08-30T22:23:42.883Z,4191.2
2023-08-30T22:29:18.432Z,4188.8
2023-08-30T22:34:53.751Z,4190.3
2023-08-30T22:40:29.018Z,4190.2
2023-08-30T22:46:05.482Z,4190.7
2023-08-30T22:51:56.303Z,4188
2023-08-30T22:57:31.922Z,4186.8
2023-08-30T23:03:08.189Z,4189
2023-08-30T23:08:43.528Z,4184.8
2023-08-30T23:14:18.721Z,4186.3
2023-08-30T23:19:54.530Z,4184.7
2023-08-30T23:25:29.914Z,4186.5
2023-08-30T23:31:07.619Z,4185.3
2023-08-30T23:36:43.037Z,4183.3
2023-08-30T23:42:18.272Z,4186.5
2023-08-30T23:47:53.796Z,4184.5
2023-08-30T23:53:30.349Z,4180.1
2023-08-30T23:59:06.792Z,4182.8
